sensor_id;sensor_type;location;lat;lon;timestamp;pressure;altitude;pressure_sealevel;temperature;humidity
75998;BME280;64685;48.762;44.822;2024-02-26T00:03:28;103888.09;;;-10.69;100.00
75998;BME280;64685;48.762;44.822;2024-02-26T00:08:32;103890.16;;;-10.72;100.00
75998;BME280;64685;48.762;44.822;2024-02-26T00:13:36;103889.69;;;-10.79;100.00
75998;BME280;64685;48.762;44.822;2024-02-26T00:18:40;103862.06;;;-10.95;100.00
75998;BME280;64685;48.762;44.822;2024-02-26T00:23:43;103881.38;;;-10.88;100.00
75998;BME280;64685;48.762;44.822;2024-02-26T00:28:47;103879.97;;;-10.94;100.00
75998;BME280;64685;48.762;44.822;2024-02-26T00:33:51;103866.81;;;-10.86;100.00
75998;BME280;64685;48.762;44.822;2024-02-26T00:38:55;103859.91;;;-10.90;100.00
75998;BME280;64685;48.762;44.822;2024-02-26T00:43:58;103861.53;;;-10.87;100.00
75998;BME280;64685;48.762;44.822;2024-02-26T00:49:03;103863.25;;;-10.86;100.00
75998;BME280;64685;48.762;44.822;2024-02-26T00:54:07;103869.84;;;-10.78;100.00
75998;BME280;64685;48.762;44.822;2024-02-26T00:59:10;103844.81;;;-10.80;100.00
75998;BME280;64685;48.762;44.822;2024-02-26T01:04:16;103851.47;;;-10.85;100.00
75998;BME280;64685;48.762;44.822;2024-02-26T01:09:19;103855.38;;;-10.77;100.00
75998;BME280;64685;48.762;44.822;2024-02-26T01:14:23;103867.78;;;-10.62;100.00
75998;BME280;64685;48.762;44.822;2024-02-26T01:19:27;103870.47;;;-10.99;100.00
75998;BME280;64685;48.762;44.822;2024-02-26T01:24:30;103856.56;;;-11.18;100.00
75998;BME280;64685;48.762;44.822;2024-02-26T01:29:34;103845.53;;;-11.28;100.00
75998;BME280;64685;48.762;44.822;2024-02-26T01:34:37;103843.84;;;-11.04;100.00
75998;BME280;64685;48.762;44.822;2024-02-26T01:39:41;103843.72;;;-11.15;100.00
75998;BME280;64685;48.762;44.822;2024-02-26T01:44:47;103837.44;;;-11.28;100.00
75998;BME280;64685;48.762;44.822;2024-02-26T01:49:50;103834.53;;;-11.25;100.00
75998;BME280;64685;48.762;44.822;2024-02-26T01:54:54;103820.59;;;-11.44;100.00
75998;BME280;64685;48.762;44.822;2024-02-26T01:59:58;103831.38;;;-11.44;100.00
75998;BME280;64685;48.762;44.822;2024-02-26T02:05:01;103814.75;;;-11.50;100.00
75998;BME280;64685;48.762;44.822;2024-02-26T02:10:06;103801.81;;;-11.58;100.00
75998;BME280;64685;48.762;44.822;2024-02-26T02:15:09;103831.91;;;-11.51;100.00
75998;BME280;64685;48.762;44.822;2024-02-26T02:20:17;103817.00;;;-11.57;100.00
75998;BME280;64685;48.762;44.822;2024-02-26T02:25:21;103811.78;;;-11.58;100.00
75998;BME280;64685;48.762;44.822;2024-02-26T02:30:28;103809.28;;;-11.49;100.00
75998;BME280;64685;48.762;44.822;2024-02-26T02:35:32;103797.63;;;-11.49;100.00
75998;BME280;64685;48.762;44.822;2024-02-26T02:40:36;103803.09;;;-11.51;100.00
75998;BME280;64685;48.762;44.822;2024-02-26T02:45:39;103802.91;;;-11.48;100.00
75998;BME280;64685;48.762;44.822;2024-02-26T02:50:43;103792.75;;;-11.57;100.00
75998;BME280;64685;48.762;44.822;2024-02-26T02:55:46;103796.09;;;-11.53;100.00
75998;BME280;64685;48.762;44.822;2024-02-26T03:00:50;103788.03;;;-11.66;100.00
75998;BME280;64685;48.762;44.822;2024-02-26T03:05:54;103803.34;;;-11.54;100.00
75998;BME280;64685;48.762;44.822;2024-02-26T03:10:58;103783.59;;;-11.67;100.00
75998;BME280;64685;48.762;44.822;2024-02-26T03:16:06;103780.72;;;-11.64;100.00
75998;BME280;64685;48.762;44.822;2024-02-26T03:21:09;103794.59;;;-11.45;100.00
75998;BME280;64685;48.762;44.822;2024-02-26T03:26:13;103790.41;;;-11.49;100.00
75998;BME280;64685;48.762;44.822;2024-02-26T03:31:17;103791.91;;;-11.45;100.00
75998;BME280;64685;48.762;44.822;2024-02-26T03:36:21;103776.06;;;-11.49;100.00
75998;BME280;64685;48.762;44.822;2024-02-26T03:41:25;103787.59;;;-11.35;100.00
75998;BME280;64685;48.762;44.822;2024-02-26T03:46:29;103794.84;;;-11.35;100.00
75998;BME280;64685;48.762;44.822;2024-02-26T03:51:33;103794.31;;;-11.40;100.00
75998;BME280;64685;48.762;44.822;2024-02-26T03:56:39;103793.84;;;-11.47;100.00
75998;BME280;64685;48.762;44.822;2024-02-26T04:01:46;103803.88;;;-11.49;100.00
75998;BME280;64685;48.762;44.822;2024-02-26T04:06:54;103807.03;;;-11.30;100.00
75998;BME280;64685;48.762;44.822;2024-02-26T04:11:58;103800.88;;;-11.19;100.00
75998;BME280;64685;48.762;44.822;2024-02-26T04:17:02;103821.69;;;-10.59;100.00
75998;BME280;64685;48.762;44.822;2024-02-26T04:22:06;103810.47;;;-10.30;100.00
75998;BME280;64685;48.762;44.822;2024-02-26T04:27:11;103835.53;;;-9.81;100.00
75998;BME280;64685;48.762;44.822;2024-02-26T04:32:15;103820.06;;;-9.79;100.00
75998;BME280;64685;48.762;44.822;2024-02-26T04:37:19;103817.00;;;-9.51;100.00
75998;BME280;64685;48.762;44.822;2024-02-26T04:43:29;103816.75;;;-9.13;100.00
75998;BME280;64685;48.762;44.822;2024-02-26T05:50:25;103827.47;;;-1.87;80.41
75998;BME280;64685;48.762;44.822;2024-02-26T05:55:34;103830.97;;;-2.10;78.26
75998;BME280;64685;48.762;44.822;2024-02-26T06:00:38;103824.34;;;-2.59;78.26
75998;BME280;64685;48.762;44.822;2024-02-26T06:05:43;103836.50;;;-1.94;75.50
75998;BME280;64685;48.762;44.822;2024-02-26T06:10:47;103842.16;;;-1.46;72.64
75998;BME280;64685;48.762;44.822;2024-02-26T06:15:51;103831.91;;;-0.88;70.03
75998;BME280;64685;48.762;44.822;2024-02-26T06:20:55;103831.56;;;-0.93;68.99
75998;BME280;64685;48.762;44.822;2024-02-26T06:25:59;103830.84;;;0.07;68.01
75998;BME280;64685;48.762;44.822;2024-02-26T06:31:04;103832.13;;;0.27;63.02
75998;BME280;64685;48.762;44.822;2024-02-26T06:36:08;103826.81;;;1.01;61.55
75998;BME280;64685;48.762;44.822;2024-02-26T06:41:12;103812.56;;;1.20;63.02
75998;BME280;64685;48.762;44.822;2024-02-26T06:46:16;103828.38;;;1.69;61.58
75998;BME280;64685;48.762;44.822;2024-02-26T06:51:20;103830.03;;;2.07;58.80
75998;BME280;64685;48.762;44.822;2024-02-26T06:56:24;103824.25;;;3.15;53.91
75998;BME280;64685;48.762;44.822;2024-02-26T07:01:28;103816.59;;;3.38;50.91
75998;BME280;64685;48.762;44.822;2024-02-26T07:06:34;103827.91;;;3.16;49.16
75998;BME280;64685;48.762;44.822;2024-02-26T07:11:38;103811.84;;;2.84;49.97
75998;BME280;64685;48.762;44.822;2024-02-26T07:16:45;103820.28;;;4.07;48.51
75998;BME280;64685;48.762;44.822;2024-02-26T07:21:49;103824.03;;;5.58;45.62
75998;BME280;64685;48.762;44.822;2024-02-26T07:26:53;103810.38;;;5.57;43.07
75998;BME280;64685;48.762;44.822;2024-02-26T07:31:58;103804.84;;;5.89;42.11
75998;BME280;64685;48.762;44.822;2024-02-26T07:37:02;103801.84;;;5.91;41.97
75998;BME280;64685;48.762;44.822;2024-02-26T07:42:06;103803.25;;;6.63;39.92
75998;BME280;64685;48.762;44.822;2024-02-26T07:47:10;103791.38;;;7.18;38.95
75998;BME280;64685;48.762;44.822;2024-02-26T07:52:14;103797.22;;;6.73;37.34
75998;BME280;64685;48.762;44.822;2024-02-26T07:57:18;103804.25;;;7.37;37.10
75998;BME280;64685;48.762;44.822;2024-02-26T08:02:21;103779.84;;;7.39;35.93
75998;BME280;64685;48.762;44.822;2024-02-26T08:07:26;103789.53;;;7.97;36.00
75998;BME280;64685;48.762;44.822;2024-02-26T08:12:31;103773.22;;;6.54;35.97
75998;BME280;64685;48.762;44.822;2024-02-26T08:17:36;103776.22;;;7.81;35.49
75998;BME280;64685;48.762;44.822;2024-02-26T08:22:40;103770.97;;;7.00;35.80
75998;BME280;64685;48.762;44.822;2024-02-26T08:27:44;103766.28;;;6.25;36.72
75998;BME280;64685;48.762;44.822;2024-02-26T08:32:48;103758.69;;;6.08;35.77
75998;BME280;64685;48.762;44.822;2024-02-26T08:37:54;103743.59;;;6.41;35.76
75998;BME280;64685;48.762;44.822;2024-02-26T08:42:58;103747.97;;;7.17;35.54
75998;BME280;64685;48.762;44.822;2024-02-26T08:48:05;103737.06;;;7.40;34.76
75998;BME280;64685;48.762;44.822;2024-02-26T08:53:09;103741.06;;;6.71;35.60
75998;BME280;64685;48.762;44.822;2024-02-26T08:58:15;103723.09;;;7.65;34.78
75998;BME280;64685;48.762;44.822;2024-02-26T09:03:19;103736.91;;;6.80;35.20
75998;BME280;64685;48.762;44.822;2024-02-26T09:08:23;103724.66;;;7.18;34.45
75998;BME280;64685;48.762;44.822;2024-02-26T09:13:27;103707.72;;;6.40;34.75
75998;BME280;64685;48.762;44.822;2024-02-26T09:18:30;103719.47;;;7.46;34.38
75998;BME280;64685;48.762;44.822;2024-02-26T09:23:34;103702.28;;;8.39;33.71
75998;BME280;64685;48.762;44.822;2024-02-26T09:28:38;103717.84;;;7.93;33.77
75998;BME280;64685;48.762;44.822;2024-02-26T09:33:42;103699.31;;;8.23;32.91
75998;BME280;64685;48.762;44.822;2024-02-26T09:38:49;103692.91;;;8.04;33.15
75998;BME280;64685;48.762;44.822;2024-02-26T09:44:04;103684.84;;;8.73;31.94
75998;BME280;64685;48.762;44.822;2024-02-26T09:49:09;103691.34;;;8.26;32.20
75998;BME280;64685;48.762;44.822;2024-02-26T09:54:15;103670.13;;;7.78;32.20
75998;BME280;64685;48.762;44.822;2024-02-26T09:59:23;103680.28;;;8.20;31.76
75998;BME280;64685;48.762;44.822;2024-02-26T10:04:27;103675.59;;;7.66;31.34
75998;BME280;64685;48.762;44.822;2024-02-26T10:09:32;103667.75;;;8.29;31.23
75998;BME280;64685;48.762;44.822;2024-02-26T10:14:36;103651.56;;;7.36;31.15
75998;BME280;64685;48.762;44.822;2024-02-26T10:19:40;103643.22;;;7.90;31.79
75998;BME280;64685;48.762;44.822;2024-02-26T10:24:47;103644.44;;;9.28;31.75
75998;BME280;64685;48.762;44.822;2024-02-26T10:29:56;103636.41;;;8.33;32.45
75998;BME280;64685;48.762;44.822;2024-02-26T10:35:00;103626.69;;;8.06;32.89
75998;BME280;64685;48.762;44.822;2024-02-26T10:40:05;103628.94;;;8.45;32.57
75998;BME280;64685;48.762;44.822;2024-02-26T10:45:09;103610.25;;;8.05;32.37
75998;BME280;64685;48.762;44.822;2024-02-26T10:50:14;103610.19;;;7.28;31.74
75998;BME280;64685;48.762;44.822;2024-02-26T10:55:22;103606.31;;;7.29;32.38
75998;BME280;64685;48.762;44.822;2024-02-26T11:00:27;103595.91;;;7.24;35.26
75998;BME280;64685;48.762;44.822;2024-02-26T11:05:33;103604.63;;;7.28;37.03
75998;BME280;64685;48.762;44.822;2024-02-26T11:10:38;103588.88;;;7.40;37.09
75998;BME280;64685;48.762;44.822;2024-02-26T11:15:46;103581.66;;;7.68;37.33
75998;BME280;64685;48.762;44.822;2024-02-26T11:20:51;103592.34;;;6.50;38.82
75998;BME280;64685;48.762;44.822;2024-02-26T11:25:58;103579.84;;;6.10;40.09
75998;BME280;64685;48.762;44.822;2024-02-26T11:31:03;103573.19;;;5.80;40.02
75998;BME280;64685;48.762;44.822;2024-02-26T11:36:11;103568.72;;;5.73;40.59
75998;BME280;64685;48.762;44.822;2024-02-26T11:41:16;103567.88;;;5.22;41.02
75998;BME280;64685;48.762;44.822;2024-02-26T11:46:29;103560.28;;;4.91;42.86
75998;BME280;64685;48.762;44.822;2024-02-26T11:51:36;103565.88;;;4.13;43.05
75998;BME280;64685;48.762;44.822;2024-02-26T11:56:40;103560.38;;;3.34;44.17
75998;BME280;64685;48.762;44.822;2024-02-26T12:01:48;103572.66;;;3.31;43.86
75998;BME280;64685;48.762;44.822;2024-02-26T12:06:55;103571.00;;;2.96;46.54
75998;BME280;64685;48.762;44.822;2024-02-26T12:12:04;103554.66;;;1.91;51.13
75998;BME280;64685;48.762;44.822;2024-02-26T12:17:21;103543.03;;;1.54;54.39
75998;BME280;64685;48.762;44.822;2024-02-26T12:22:26;103540.59;;;0.94;59.94
75998;BME280;64685;48.762;44.822;2024-02-26T12:27:30;103544.78;;;0.61;63.30
75998;BME280;64685;48.762;44.822;2024-02-26T12:32:35;103544.88;;;0.53;65.80
75998;BME280;64685;48.762;44.822;2024-02-26T12:37:40;103550.50;;;0.23;66.87
75998;BME280;64685;48.762;44.822;2024-02-26T12:42:46;103541.72;;;0.05;68.68
75998;BME280;64685;48.762;44.822;2024-02-26T12:47:53;103553.00;;;-0.27;72.28
75998;BME280;64685;48.762;44.822;2024-02-26T12:52:59;103534.31;;;-0.54;75.92
75998;BME280;64685;48.762;44.822;2024-02-26T12:58:04;103540.34;;;-0.58;79.72
75998;BME280;64685;48.762;44.822;2024-02-26T13:03:09;103525.41;;;-0.86;82.99
75998;BME280;64685;48.762;44.822;2024-02-26T13:08:25;103527.75;;;-1.06;86.55
75998;BME280;64685;48.762;44.822;2024-02-26T13:13:28;103526.72;;;-1.13;89.47
75998;BME280;64685;48.762;44.822;2024-02-26T13:18:32;103529.03;;;-1.32;91.74
75998;BME280;64685;48.762;44.822;2024-02-26T13:23:41;103556.44;;;-1.32;93.21
75998;BME280;64685;48.762;44.822;2024-02-26T13:28:45;103537.34;;;-1.64;95.73
75998;BME280;64685;48.762;44.822;2024-02-26T13:33:49;103526.06;;;-1.77;96.18
75998;BME280;64685;48.762;44.822;2024-02-26T13:38:56;103534.13;;;-1.92;97.53
75998;BME280;64685;48.762;44.822;2024-02-26T13:44:00;103539.28;;;-2.05;98.67
75998;BME280;64685;48.762;44.822;2024-02-26T13:49:08;103558.25;;;-2.19;100.00
75998;BME280;64685;48.762;44.822;2024-02-26T13:54:16;103564.59;;;-2.27;100.00
75998;BME280;64685;48.762;44.822;2024-02-26T13:59:20;103561.78;;;-2.59;100.00
75998;BME280;64685;48.762;44.822;2024-02-26T14:04:27;103563.84;;;-2.69;100.00
75998;BME280;64685;48.762;44.822;2024-02-26T14:09:32;103571.47;;;-2.88;100.00
75998;BME280;64685;48.762;44.822;2024-02-26T14:14:51;103556.47;;;-3.18;100.00
75998;BME280;64685;48.762;44.822;2024-02-26T14:19:59;103587.19;;;-3.24;100.00
75998;BME280;64685;48.762;44.822;2024-02-26T14:25:05;103573.28;;;-3.38;100.00
75998;BME280;64685;48.762;44.822;2024-02-26T14:30:10;103577.78;;;-3.55;100.00
75998;BME280;64685;48.762;44.822;2024-02-26T14:35:14;103564.56;;;-3.67;100.00
75998;BME280;64685;48.762;44.822;2024-02-26T14:40:20;103565.63;;;-3.86;100.00
75998;BME280;64685;48.762;44.822;2024-02-26T14:45:24;103581.72;;;-4.00;100.00
75998;BME280;64685;48.762;44.822;2024-02-26T14:50:28;103580.78;;;-4.09;100.00
75998;BME280;64685;48.762;44.822;2024-02-26T14:55:32;103594.97;;;-4.05;100.00
75998;BME280;64685;48.762;44.822;2024-02-26T15:00:41;103591.84;;;-4.10;100.00
75998;BME280;64685;48.762;44.822;2024-02-26T15:05:45;103597.06;;;-4.17;100.00
75998;BME280;64685;48.762;44.822;2024-02-26T15:10:50;103597.56;;;-4.21;100.00
75998;BME280;64685;48.762;44.822;2024-02-26T15:15:54;103582.81;;;-4.46;100.00
75998;BME280;64685;48.762;44.822;2024-02-26T15:20:59;103600.81;;;-4.53;100.00
75998;BME280;64685;48.762;44.822;2024-02-26T15:26:03;103587.38;;;-4.81;100.00
75998;BME280;64685;48.762;44.822;2024-02-26T15:31:06;103600.81;;;-4.97;100.00
75998;BME280;64685;48.762;44.822;2024-02-26T15:36:15;103621.19;;;-5.01;100.00
75998;BME280;64685;48.762;44.822;2024-02-26T15:41:19;103619.81;;;-5.15;100.00
75998;BME280;64685;48.762;44.822;2024-02-26T15:46:23;103618.84;;;-5.23;100.00
75998;BME280;64685;48.762;44.822;2024-02-26T15:51:27;103602.13;;;-5.38;100.00
75998;BME280;64685;48.762;44.822;2024-02-26T15:56:31;103599.56;;;-5.39;100.00
75998;BME280;64685;48.762;44.822;2024-02-26T16:01:35;103586.53;;;-5.45;100.00
75998;BME280;64685;48.762;44.822;2024-02-26T16:06:45;103600.63;;;-5.50;100.00
75998;BME280;64685;48.762;44.822;2024-02-26T16:11:50;103604.78;;;-5.65;100.00
75998;BME280;64685;48.762;44.822;2024-02-26T16:16:59;103598.13;;;-5.80;100.00
75998;BME280;64685;48.762;44.822;2024-02-26T16:22:04;103594.56;;;-5.99;100.00
75998;BME280;64685;48.762;44.822;2024-02-26T16:27:08;103589.47;;;-6.12;100.00
75998;BME280;64685;48.762;44.822;2024-02-26T16:32:12;103576.59;;;-6.19;100.00
75998;BME280;64685;48.762;44.822;2024-02-26T16:37:17;103599.34;;;-6.20;100.00
75998;BME280;64685;48.762;44.822;2024-02-26T16:42:21;103581.16;;;-6.39;100.00
75998;BME280;64685;48.762;44.822;2024-02-26T16:47:25;103586.28;;;-6.36;100.00
75998;BME280;64685;48.762;44.822;2024-02-26T16:52:29;103589.16;;;-6.56;100.00
75998;BME280;64685;48.762;44.822;2024-02-26T16:57:33;103585.28;;;-6.73;100.00
75998;BME280;64685;48.762;44.822;2024-02-26T17:02:37;103588.56;;;-6.79;100.00
75998;BME280;64685;48.762;44.822;2024-02-26T17:07:41;103574.94;;;-6.98;100.00
75998;BME280;64685;48.762;44.822;2024-02-26T17:12:47;103590.25;;;-6.97;100.00
75998;BME280;64685;48.762;44.822;2024-02-26T17:17:53;103586.78;;;-6.99;100.00
75998;BME280;64685;48.762;44.822;2024-02-26T17:22:57;103599.38;;;-6.98;100.00
75998;BME280;64685;48.762;44.822;2024-02-26T17:28:01;103581.22;;;-7.07;100.00
75998;BME280;64685;48.762;44.822;2024-02-26T17:33:05;103591.97;;;-6.96;100.00
75998;BME280;64685;48.762;44.822;2024-02-26T17:38:10;103584.66;;;-6.95;100.00
75998;BME280;64685;48.762;44.822;2024-02-26T17:43:20;103580.97;;;-6.85;100.00
75998;BME280;64685;48.762;44.822;2024-02-26T17:48:24;103575.13;;;-6.80;100.00
75998;BME280;64685;48.762;44.822;2024-02-26T17:53:32;103564.56;;;-6.83;100.00
75998;BME280;64685;48.762;44.822;2024-02-26T17:58:37;103585.56;;;-6.76;100.00
75998;BME280;64685;48.762;44.822;2024-02-26T18:03:45;103579.16;;;-6.75;100.00
75998;BME280;64685;48.762;44.822;2024-02-26T18:08:50;103558.25;;;-6.93;100.00
75998;BME280;64685;48.762;44.822;2024-02-26T18:13:54;103561.66;;;-6.91;100.00
75998;BME280;64685;48.762;44.822;2024-02-26T18:19:00;103559.94;;;-6.92;100.00
75998;BME280;64685;48.762;44.822;2024-02-26T18:24:04;103568.66;;;-6.98;100.00
75998;BME280;64685;48.762;44.822;2024-02-26T18:29:08;103560.06;;;-7.03;100.00
75998;BME280;64685;48.762;44.822;2024-02-26T18:34:12;103540.75;;;-7.00;100.00
75998;BME280;64685;48.762;44.822;2024-02-26T18:39:16;103535.19;;;-7.08;100.00
75998;BME280;64685;48.762;44.822;2024-02-26T18:44:22;103544.59;;;-7.12;100.00
75998;BME280;64685;48.762;44.822;2024-02-26T18:49:26;103534.75;;;-7.13;100.00
75998;BME280;64685;48.762;44.822;2024-02-26T18:54:32;103549.75;;;-7.09;100.00
75998;BME280;64685;48.762;44.822;2024-02-26T18:59:39;103534.84;;;-7.34;100.00
75998;BME280;64685;48.762;44.822;2024-02-26T19:04:43;103536.88;;;-7.26;100.00
75998;BME280;64685;48.762;44.822;2024-02-26T19:09:47;103543.41;;;-7.38;100.00
75998;BME280;64685;48.762;44.822;2024-02-26T19:14:52;103544.66;;;-7.42;100.00
75998;BME280;64685;48.762;44.822;2024-02-26T19:19:57;103528.06;;;-7.49;100.00
75998;BME280;64685;48.762;44.822;2024-02-26T19:25:01;103537.69;;;-7.35;100.00
75998;BME280;64685;48.762;44.822;2024-02-26T19:30:05;103533.22;;;-7.46;100.00
75998;BME280;64685;48.762;44.822;2024-02-26T19:35:09;103550.53;;;-7.37;100.00
75998;BME280;64685;48.762;44.822;2024-02-26T19:40:13;103542.97;;;-7.34;100.00
75998;BME280;64685;48.762;44.822;2024-02-26T19:45:18;103532.06;;;-7.53;100.00
75998;BME280;64685;48.762;44.822;2024-02-26T19:50:23;103558.19;;;-7.52;100.00
75998;BME280;64685;48.762;44.822;2024-02-26T19:55:27;103544.28;;;-7.68;100.00
75998;BME280;64685;48.762;44.822;2024-02-26T20:00:32;103539.94;;;-7.80;100.00
75998;BME280;64685;48.762;44.822;2024-02-26T20:05:36;103536.19;;;-7.88;100.00
75998;BME280;64685;48.762;44.822;2024-02-26T20:10:41;103548.81;;;-7.68;100.00
75998;BME280;64685;48.762;44.822;2024-02-26T20:15:45;103559.13;;;-7.62;100.00
75998;BME280;64685;48.762;44.822;2024-02-26T20:20:51;103549.38;;;-7.44;100.00
75998;BME280;64685;48.762;44.822;2024-02-26T20:25:56;103543.22;;;-7.76;100.00
75998;BME280;64685;48.762;44.822;2024-02-26T20:31:03;103551.03;;;-7.83;100.00
75998;BME280;64685;48.762;44.822;2024-02-26T20:36:07;103552.63;;;-7.80;100.00
75998;BME280;64685;48.762;44.822;2024-02-26T20:41:11;103558.31;;;-7.83;100.00
75998;BME280;64685;48.762;44.822;2024-02-26T20:46:15;103554.16;;;-7.87;100.00
75998;BME280;64685;48.762;44.822;2024-02-26T20:51:19;103563.81;;;-7.94;100.00
75998;BME280;64685;48.762;44.822;2024-02-26T20:56:23;103548.63;;;-8.06;100.00
75998;BME280;64685;48.762;44.822;2024-02-26T21:01:26;103564.75;;;-8.05;100.00
75998;BME280;64685;48.762;44.822;2024-02-26T21:06:31;103571.56;;;-8.10;100.00
75998;BME280;64685;48.762;44.822;2024-02-26T21:11:35;103572.66;;;-8.22;100.00
75998;BME280;64685;48.762;44.822;2024-02-26T21:16:39;103561.00;;;-8.34;100.00
75998;BME280;64685;48.762;44.822;2024-02-26T21:21:46;103562.19;;;-8.47;100.00
75998;BME280;64685;48.762;44.822;2024-02-26T21:26:49;103577.94;;;-8.52;100.00
75998;BME280;64685;48.762;44.822;2024-02-26T21:31:54;103574.94;;;-8.59;100.00
75998;BME280;64685;48.762;44.822;2024-02-26T21:36:58;103573.53;;;-8.53;100.00
75998;BME280;64685;48.762;44.822;2024-02-26T21:42:02;103571.34;;;-8.59;100.00
75998;BME280;64685;48.762;44.822;2024-02-26T21:47:06;103571.63;;;-8.62;100.00
75998;BME280;64685;48.762;44.822;2024-02-26T21:52:10;103565.09;;;-8.60;100.00
75998;BME280;64685;48.762;44.822;2024-02-26T21:57:14;103552.06;;;-8.66;100.00
75998;BME280;64685;48.762;44.822;2024-02-26T22:02:19;103545.25;;;-8.60;100.00
75998;BME280;64685;48.762;44.822;2024-02-26T22:07:22;103571.25;;;-8.37;100.00
75998;BME280;64685;48.762;44.822;2024-02-26T22:12:29;103565.81;;;-8.17;100.00
75998;BME280;64685;48.762;44.822;2024-02-26T22:17:34;103551.28;;;-8.36;100.00
75998;BME280;64685;48.762;44.822;2024-02-26T22:22:38;103570.84;;;-8.33;100.00
75998;BME280;64685;48.762;44.822;2024-02-26T22:27:48;103580.25;;;-8.37;100.00
75998;BME280;64685;48.762;44.822;2024-02-26T22:32:52;103572.06;;;-8.46;100.00
75998;BME280;64685;48.762;44.822;2024-02-26T22:37:57;103576.50;;;-8.56;100.00
75998;BME280;64685;48.762;44.822;2024-02-26T22:43:03;103548.84;;;-8.60;100.00
75998;BME280;64685;48.762;44.822;2024-02-26T22:48:12;103576.00;;;-8.50;100.00
75998;BME280;64685;48.762;44.822;2024-02-26T22:53:18;103578.06;;;-8.43;100.00
75998;BME280;64685;48.762;44.822;2024-02-26T22:58:22;103589.69;;;-8.31;100.00
75998;BME280;64685;48.762;44.822;2024-02-26T23:03:27;103574.94;;;-8.38;100.00
75998;BME280;64685;48.762;44.822;2024-02-26T23:08:31;103587.19;;;-8.23;100.00
75998;BME280;64685;48.762;44.822;2024-02-26T23:13:35;103576.19;;;-8.42;100.00
75998;BME280;64685;48.762;44.822;2024-02-26T23:18:39;103585.97;;;-8.30;100.00
75998;BME280;64685;48.762;44.822;2024-02-26T23:23:43;103604.69;;;-8.07;100.00
75998;BME280;64685;48.762;44.822;2024-02-26T23:28:47;103589.97;;;-8.34;100.00
75998;BME280;64685;48.762;44.822;2024-02-26T23:33:51;103603.50;;;-8.34;100.00
75998;BME280;64685;48.762;44.822;2024-02-26T23:38:57;103588.31;;;-8.46;100.00
75998;BME280;64685;48.762;44.822;2024-02-26T23:44:03;103598.94;;;-8.34;100.00
75998;BME280;64685;48.762;44.822;2024-02-26T23:49:08;103596.38;;;-8.35;100.00
75998;BME280;64685;48.762;44.822;2024-02-26T23:54:12;103581.41;;;-8.50;100.00
75998;BME280;64685;48.762;44.822;2024-02-26T23:59:15;103577.88;;;-8.62;100.00
